SBOSBO ZAG / LDZA
Speedbird OnlineSpeedbird Online ZAG / LDZA

Zagreb Airport
01:23 -3.6°C

Location Zagreb, Croatia
Latitude: 45.7429008484
Longitude: 16.0687999725
Web Wikipedia
Altitude 108 Meter / 353 Feet
Distance 1,331 KM / 827 Miles
from London.
Time Zone UTC +1 hours (Europe/Zagreb)
Codes IATA: ZAG
ICAO: LDZA
Currency £1 equals HRK 8.52
Runways
RunwayLength (m)Surface
043252Asphalt
223252Asphalt
Radio
TypeDescriptionFrequency
APPAPP120.7
ATISATIS124.375
GNDGND121.85
INFOINFO124.85
RDRRADAR120.7
TWRTWR118.3
Live ATC
METAR LDZA 081430Z 06008KT 020V120 9999 BKN025 00/M05 Q1041 NOSIG
TAF TAF AMD LDZA 081257Z 0812/0912 04008KT CAVOK TX02/0813Z TNM07/0906Z TEMPO 0812/0818 4000 -SN SCT020 OVC030
Weather As Of 09 Feb 2023 01:23
Description Clear sky
Wind 11 km/h from North-East (50°)
Cloud Cover 0%
Precipitation Rain: none, Snow: none
Sunrise 07:07
Sunset 17:12
Lounges Primeclass Lounge , Main Terminal- Level 2
Rotations During the last 90 days there were
63 flights from LHR
62 flights to LHR



Support Speedbird Online

© 2017-2023 Speedbird Online